»·PEaware :: WAT390 KPHX-KBUR

WAT390 :: KPHX-KBUR

FLIGHT INFORMATION

Flight Status: Arrived
Operator:
Walker Air Transport
More flights by this operator :: More flights under this callsign
Pilot: Ewen S. (18928)
Aircraft: BOEING 737-200
(B732)
More flights by this aircraft type
Origin: KPHX Phoenix Sky Harbor Intl
United States
Destination: KBUR Bob Hope-Burbank
United States
More flights between these airports :: More routes between these airports
Route: BXK4 PMD LYNXX8
File this flight plan on PilotEdge
Remarks:
Altitude:
(Current/Filed)
32,000ft
Speed:
(Current/Filed)
430kts
Departed: 24-Nov-20 02:22 PM
Arrived: 24-Nov-20 03:29 PM
Distance/Time
Traveled:
320nm/1:07
Distance/Time
To Go:
Arrived

Flight Plot

Page will automatically refresh every two minutes.

Flight plan parsing failed; only flown route is shown


Map Options




Map Legend


Flown Route
Filed Route
Departure Airport
Arrival Airport
Navaid (VOR, NDB)
Fix

Horizontal Profiles

Position Reports

Time Latitude Longitude Heading Altitude Ground
Speed
24-Nov-20 13:52 33.437520 -111.999814 90 1118ft 0kts
24-Nov-20 13:53 33.437520 -111.999814 90 1118ft 0kts
24-Nov-20 13:54 33.437520 -111.999814 90 1118ft 0kts
24-Nov-20 13:55 33.437520 -111.999814 90 1118ft 0kts
24-Nov-20 13:56 33.437520 -111.999814 90 1118ft 0kts
24-Nov-20 13:57 33.437520 -111.999814 90 1118ft 0kts
24-Nov-20 13:58 33.437520 -111.999814 90 1118ft 0kts
24-Nov-20 13:59 33.437520 -111.999814 90 1118ft 0kts
24-Nov-20 14:00 33.437520 -111.999814 90 1118ft 0kts
24-Nov-20 14:01 33.437520 -111.999814 90 1118ft 0kts
24-Nov-20 14:02 33.437520 -111.999814 90 1118ft 0kts
24-Nov-20 14:03 33.437520 -111.999814 90 1118ft 0kts
24-Nov-20 14:04 33.437520 -111.999814 90 1118ft 0kts
24-Nov-20 14:05 33.437520 -111.999814 90 1118ft 0kts
24-Nov-20 14:06 33.437520 -111.999814 90 1118ft 0kts
24-Nov-20 14:07 33.437520 -111.999814 90 1118ft 0kts
24-Nov-20 14:08 33.437520 -111.999814 90 1118ft 0kts
24-Nov-20 14:09 33.437520 -111.999875 90 1118ft 2kts
24-Nov-20 14:10 33.437290 -112.000307 359 1118ft 0kts
24-Nov-20 14:11 33.437290 -112.000307 359 1118ft 0kts
24-Nov-20 14:12 33.437290 -112.000307 359 1118ft 0kts
24-Nov-20 14:13 33.437290 -112.000307 359 1118ft 0kts
24-Nov-20 14:14 33.437473 -112.000309 359 1118ft 3kts
24-Nov-20 14:15 33.438683 -112.000388 338 1118ft 14kts
24-Nov-20 14:16 33.439015 -112.007109 270 1118ft 24kts
24-Nov-20 14:17 33.439012 -112.015144 269 1118ft 22kts
24-Nov-20 14:18 33.439035 -112.022441 270 1118ft 20kts
24-Nov-20 14:20 33.439067 -112.028909 274 1118ft 16kts
24-Nov-20 14:21 33.440870 -112.028842 89 1118ft 12kts
24-Nov-20 14:22 33.440850 -111.988096 94 2077ft 185kts
24-Nov-20 14:23 33.439202 -111.922413 92 5241ft 214kts
24-Nov-20 14:24 33.420063 -111.853385 138 7741ft 245kts
24-Nov-20 14:25 33.356685 -111.878492 254 8010ft 294kts
24-Nov-20 14:26 33.351601 -111.973905 270 10037ft 283kts
24-Nov-20 14:27 33.347466 -112.071111 270 12289ft 298kts
24-Nov-20 14:28 33.341136 -112.171356 272 14924ft 301kts
24-Nov-20 14:29 33.347060 -112.272551 283 17275ft 304kts
24-Nov-20 14:30 33.368549 -112.371606 289 18685ft 314kts
24-Nov-20 14:31 33.393917 -112.475069 286 20206ft 325kts
24-Nov-20 14:32 33.412376 -112.583307 283 21609ft 334kts
24-Nov-20 14:33 33.430567 -112.695579 284 22909ft 341kts
24-Nov-20 14:34 33.449116 -112.809453 275 24055ft 351kts
24-Nov-20 14:35 33.461319 -112.926653 284 25104ft 354kts
24-Nov-20 14:36 33.471193 -113.046747 279 26007ft 362kts
24-Nov-20 14:37 33.483342 -113.167894 279 26894ft 366kts
24-Nov-20 14:37 33.492927 -113.269585 278 27585ft 369kts
24-Nov-20 14:39 33.548781 -113.394471 293 28379ft 370kts
24-Nov-20 14:39 33.573874 -113.493075 288 28954ft 373kts
24-Nov-20 14:41 33.608672 -113.634114 288 29658ft 379kts
24-Nov-20 14:41 33.630930 -113.737434 285 30172ft 384kts
24-Nov-20 14:42 33.653784 -113.864296 283 30838ft 389kts
24-Nov-20 14:43 33.674114 -113.993287 283 31458ft 393kts
24-Nov-20 14:44 33.694698 -114.124031 283 31977ft 397kts
24-Nov-20 14:45 33.717297 -114.256759 284 32108ft 410kts
24-Nov-20 14:46 33.742611 -114.393133 285 32103ft 423kts
24-Nov-20 14:47 33.768577 -114.533653 283 32101ft 434kts
24-Nov-20 14:48 33.773260 -114.681796 279 32104ft 442kts
24-Nov-20 14:49 33.792216 -114.829563 284 32101ft 447kts
24-Nov-20 14:50 33.825369 -114.974829 291 32098ft 441kts
24-Nov-20 14:51 33.870616 -115.111347 297 32099ft 432kts
24-Nov-20 14:52 33.924269 -115.240367 300 32095ft 427kts
24-Nov-20 14:53 33.979366 -115.366440 299 32108ft 423kts
24-Nov-20 14:54 34.027715 -115.495674 295 32164ft 421kts
24-Nov-20 14:55 34.062842 -115.630795 288 32194ft 421kts
24-Nov-20 14:56 34.083799 -115.770827 282 32212ft 423kts
24-Nov-20 14:57 34.096644 -115.913245 280 32210ft 423kts
24-Nov-20 14:58 34.112989 -116.053729 285 32210ft 420kts
24-Nov-20 14:59 34.143071 -116.190745 293 32206ft 416kts
24-Nov-20 15:00 34.188073 -116.319819 299 32184ft 413kts
24-Nov-20 15:01 34.240721 -116.444251 300 32195ft 412kts
24-Nov-20 15:02 34.289132 -116.571525 295 32144ft 416kts
24-Nov-20 15:03 34.323949 -116.707437 287 32129ft 421kts
24-Nov-20 15:04 34.344776 -116.847130 283 31359ft 415kts
24-Nov-20 15:05 34.363346 -116.984395 285 29745ft 404kts
24-Nov-20 15:06 34.390992 -117.114684 291 28048ft 391kts
24-Nov-20 15:07 34.427957 -117.236439 295 26272ft 381kts
24-Nov-20 15:08 34.465928 -117.356170 293 24225ft 372kts
24-Nov-20 15:09 34.496180 -117.476076 288 22321ft 364kts
24-Nov-20 15:10 34.520414 -117.593894 287 20508ft 354kts
24-Nov-20 15:11 34.545563 -117.707946 288 18683ft 346kts
24-Nov-20 15:12 34.572441 -117.817073 288 17401ft 326kts
24-Nov-20 15:13 34.598145 -117.923403 287 15007ft 322kts
24-Nov-20 15:14 34.622541 -118.026594 287 13594ft 313kts
24-Nov-20 15:15 34.610398 -118.131002 255 12069ft 316kts
24-Nov-20 15:16 34.590685 -118.235473 259 10598ft 311kts
24-Nov-20 15:17 34.573055 -118.329235 257 8907ft 274kts
24-Nov-20 15:18 34.554137 -118.419062 254 8083ft 283kts
24-Nov-20 15:19 34.532410 -118.513371 254 8056ft 277kts
24-Nov-20 15:20 34.495105 -118.585691 187 7830ft 263kts
24-Nov-20 15:21 34.421647 -118.578734 172 7435ft 263kts
24-Nov-20 15:22 34.349133 -118.567694 168 6454ft 259kts
24-Nov-20 15:23 34.325695 -118.501219 81 5079ft 228kts
24-Nov-20 15:24 34.292235 -118.450254 119 2020ft 225kts
24-Nov-20 15:25 34.256493 -118.414207 160 2314ft 157kts
24-Nov-20 15:26 34.234012 -118.373341 125 1741ft 152kts
24-Nov-20 15:27 34.200841 -118.357222 167 733ft 80kts
24-Nov-20 15:28 34.196185 -118.355395 26 711ft 0kts
24-Nov-20 15:29 34.196163 -118.354983 124 710ft 0kts
24-Nov-20 15:30 34.196163 -118.354983 124 710ft 0kts

Navigation Log

Ident Type
Flight plan parsing failed, navigation log unavailable